Time;durP1;ratioP1;P1;durP2;ratioP2;P2;SDS_P1;SDS_P2;PMS_P1;PMS_P2;Temp;Humidity;BMP_temperature;BMP_pressure;BME280_temperature;BME280_humidity;BME280_pressure;Samples;Min_cycle;Max_cycle;Signal;HPM_P1;HPM_P2
2022/06/01 00:00:08;;;;;;;20.05;10.63;;;;;;;12.63;100.00;100916.66;5074467;28;20050;-74
2022/06/01 00:02:36;;;;;;;19.85;10.43;;;;;;;12.57;100.00;100911.94;5078664;28;20105;-73
2022/06/01 00:05:04;;;;;;;17.90;10.48;;;;;;;12.57;100.00;100918.28;5082268;28;20044;-74
2022/06/01 00:07:31;;;;;;;20.15;10.55;;;;;;;12.58;100.00;100919.88;5078236;28;20135;-73
2022/06/01 00:09:57;;;;;;;16.25;8.85;;;;;;;12.50;100.00;100909.22;5079208;28;20048;-75
2022/06/01 00:12:24;;;;;;;18.23;9.75;;;;;;;12.52;100.00;100912.38;5073590;28;20051;-75
2022/06/01 00:14:51;;;;;;;16.83;8.85;;;;;;;12.52;100.00;100912.38;5080873;28;20464;-74
2022/06/01 00:17:17;;;;;;;15.50;8.82;;;;;;;12.51;100.00;100919.09;5080013;28;20058;-77
2022/06/01 00:19:44;;;;;;;15.50;8.27;;;;;;;12.45;100.00;100906.84;5070152;28;20048;-74
2022/06/01 00:22:14;;;;;;;16.00;8.80;;;;;;;12.47;100.00;100918.34;5079271;28;20493;-74
2022/06/01 00:24:43;;;;;;;20.40;8.75;;;;;;;12.47;100.00;100910.81;5075301;28;20455;-73
2022/06/01 00:27:11;;;;;;;18.17;9.65;;;;;;;12.46;100.00;100914.00;5080997;28;20161;-75
2022/06/01 00:29:38;;;;;;;16.95;9.18;;;;;;;12.48;100.00;100917.94;5073756;28;20059;-73
2022/06/01 00:32:07;;;;;;;15.50;7.53;;;;;;;12.35;100.00;100913.25;5082539;28;20135;-75
2022/06/01 00:34:34;;;;;;;14.40;8.10;;;;;;;12.34;100.00;100912.47;5078315;28;20543;-75
2022/06/01 00:37:00;;;;;;;17.52;10.20;;;;;;;12.33;100.00;100919.22;5075469;28;20080;-73
2022/06/01 00:39:27;;;;;;;14.25;8.20;;;;;;;12.23;100.00;100922.03;5075730;28;20080;-73
2022/06/01 00:41:53;;;;;;;16.58;10.15;;;;;;;12.25;100.00;100925.97;5081436;28;20055;-74
2022/06/01 00:44:20;;;;;;;17.85;9.95;;;;;;;12.25;100.00;100922.44;5074664;28;20596;-77
2022/06/01 00:46:46;;;;;;;14.90;8.30;;;;;;;12.19;100.00;100922.03;5075655;28;20127;-73
2022/06/01 00:49:20;;;;;;;16.10;8.35;;;;;;;12.13;100.00;100923.69;5070402;28;20409;-73
2022/06/01 00:51:48;;;;;;;16.52;8.25;;;;;;;12.10;100.00;100923.69;5083042;28;20047;-73
2022/06/01 00:54:15;;;;;;;15.05;8.30;;;;;;;12.10;100.00;100923.69;5077104;28;20051;-73
2022/06/01 00:56:46;;;;;;;17.95;8.77;;;;;;;12.09;100.00;100922.09;5082837;28;20457;-73
2022/06/01 00:59:16;;;;;;;18.50;9.23;;;;;;;12.12;100.00;100918.53;5080535;28;20048;-74
2022/06/01 01:01:43;;;;;;;18.98;10.55;;;;;;;12.16;100.00;100920.09;5075395;28;20744;-73
2022/06/01 01:04:10;;;;;;;18.23;10.25;;;;;;;12.20;100.00;100914.53;5083581;28;20044;-73
2022/06/01 01:06:39;;;;;;;19.80;10.40;;;;;;;12.22;100.00;100910.13;5081580;28;20128;-76
2022/06/01 01:09:09;;;;;;;19.95;11.07;;;;;;;12.20;100.00;100906.19;5080875;28;20136;-73
2022/06/01 01:11:42;;;;;;;18.15;9.35;;;;;;;12.17;100.00;100920.88;5074185;28;20130;-73
2022/06/01 01:14:12;;;;;;;17.83;10.10;;;;;;;12.19;100.00;100915.72;5072885;28;20048;-75
2022/06/01 01:16:39;;;;;;;19.63;10.32;;;;;;;12.21;100.00;100914.13;5077290;28;20044;-74
2022/06/01 01:19:16;;;;;;;18.23;11.10;;;;;;;12.26;100.00;100915.69;5079998;28;20093;-74
2022/06/01 01:21:59;;;;;;;20.42;11.85;;;;;;;12.34;100.00;100914.44;5075163;28;20040;-74
2022/06/01 01:24:28;;;;;;;19.05;10.70;;;;;;;12.39;100.00;100908.50;5078486;28;20048;-74
2022/06/01 01:26:56;;;;;;;22.60;11.77;;;;;;;12.43;100.00;100912.81;5080275;28;20044;-75
2022/06/01 01:29:38;;;;;;;20.25;10.75;;;;;;;12.42;100.00;100902.13;5078993;28;20052;-74
2022/06/01 01:32:07;;;;;;;18.08;10.57;;;;;;;12.52;100.00;100915.94;5071538;28;20532;-76
2022/06/01 01:34:36;;;;;;;21.85;11.52;;;;;;;12.52;100.00;100912.38;5077568;28;20044;-75
2022/06/01 01:37:05;;;;;;;20.23;10.32;;;;;;;12.53;100.00;100903.63;5079535;28;20159;-73
2022/06/01 01:39:35;;;;;;;20.58;10.52;;;;;;;12.56;100.00;100907.59;5079507;28;20052;-73
2022/06/01 01:42:02;;;;;;;18.67;10.90;;;;;;;12.55;100.00;100912.34;5070494;28;20065;-74
2022/06/01 01:44:40;;;;;;;20.10;10.52;;;;;;;12.56;100.00;100910.38;5072680;28;20051;-73
2022/06/01 01:47:07;;;;;;;18.25;10.45;;;;;;;12.49;100.00;100896.53;5084744;28;20135;-74
2022/06/01 01:49:38;;;;;;;17.30;10.85;;;;;;;12.53;100.00;100906.41;5075269;28;20110;-73
2022/06/01 01:52:09;;;;;;;17.40;10.18;;;;;;;12.47;100.00;100905.28;5077148;28;20499;-73
2022/06/01 01:54:57;;;;;;;19.58;11.75;;;;;;;12.42;100.00;100908.44;5080972;28;21071;-74
2022/06/01 01:57:55;;;;;;;18.85;10.77;;;;;;;12.39;100.00;100908.50;5079906;28;20143;-75
2022/06/01 02:00:35;;;;;;;19.15;10.50;;;;;;;12.34;100.00;100903.34;5077422;28;20134;-74
2022/06/01 02:03:20;;;;;;;17.48;10.27;;;;;;;12.34;100.00;100909.69;5074521;28;20436;-73
2022/06/01 02:06:08;;;;;;;20.90;12.02;;;;;;;12.32;100.00;100912.06;5076192;28;20052;-74
2022/06/01 02:08:34;;;;;;;20.83;11.63;;;;;;;12.24;100.00;100918.88;5082297;28;20148;-74
2022/06/01 02:13:52;;;;;;;23.02;13.25;;;;;;;12.14;100.00;100911.38;5081373;28;20055;-74
2022/06/01 02:16:27;;;;;;;21.55;12.70;;;;;;;12.11;100.00;100912.19;5083068;28;20067;-73
2022/06/01 02:18:58;;;;;;;20.60;12.63;;;;;;;12.07;100.00;100896.75;5079414;28;20531;-73
2022/06/01 02:21:27;;;;;;;19.60;11.85;;;;;;;12.08;100.00;100912.22;5080390;28;20044;-74
2022/06/01 02:23:58;;;;;;;20.48;12.93;;;;;;;12.05;100.00;100913.00;5074683;28;20056;-74
2022/06/01 02:26:25;;;;;;;22.10;12.15;;;;;;;12.02;100.00;100911.03;5072999;28;20051;-76
2022/06/01 02:29:01;;;;;;;21.35;11.98;;;;;;;11.97;100.00;100903.91;5075898;28;20106;-74
2022/06/01 02:31:29;;;;;;;20.58;11.38;;;;;;;11.96;100.00;100909.88;5076218;28;20069;-75
2022/06/01 02:33:57;;;;;;;20.67;11.65;;;;;;;11.87;100.00;100904.75;5080113;28;20131;-74
2022/06/01 02:36:26;;;;;;;20.63;11.57;;;;;;;11.85;100.00;100909.13;5079256;28;20051;-73
2022/06/01 02:38:56;;;;;;;20.00;11.60;;;;;;;11.79;100.00;100905.97;5072188;28;20071;-74
2022/06/01 02:44:08;;;;;;;18.20;10.93;;;;;;;11.68;100.00;100907.97;5071428;28;20390;-74
2022/06/01 02:46:36;;;;;;;20.45;12.07;;;;;;;11.64;100.00;100907.19;5078621;28;20052;-73
2022/06/01 02:49:04;;;;;;;19.75;11.32;;;;;;;11.62;100.00;100919.88;5073177;28;20774;-74
2022/06/01 02:51:30;;;;;;;19.50;11.05;;;;;;;11.49;100.00;100924.22;5078041;28;20048;-73
2022/06/01 02:53:57;;;;;;;17.65;10.98;;;;;;;11.43;100.00;100921.06;5068463;28;20139;-73
2022/06/01 02:56:24;;;;;;;19.77;12.30;;;;;;;11.40;100.00;100915.50;5082541;28;20441;-74
2022/06/01 02:58:52;;;;;;;20.15;12.00;;;;;;;11.43;100.00;100925.78;5079956;28;20064;-74
2022/06/01 03:01:19;;;;;;;20.63;12.60;;;;;;;11.44;100.00;100922.63;5083302;28;20123;-74
2022/06/01 03:03:47;;;;;;;23.33;13.45;;;;;;;11.49;100.00;100926.97;5077654;28;20054;-73
2022/06/01 03:06:14;;;;;;;28.70;16.25;;;;;;;11.49;100.00;100924.22;5077143;28;20079;-74
2022/06/01 03:08:41;;;;;;;27.63;15.25;;;;;;;11.44;100.00;100924.63;5077309;28;20044;-74
2022/06/01 03:11:08;;;;;;;24.60;15.43;;;;;;;11.42;100.00;100921.44;5085285;28;20935;-75
2022/06/01 03:13:34;;;;;;;24.58;15.88;;;;;;;11.40;100.00;100923.81;5076862;28;20070;-74
2022/06/01 03:16:01;;;;;;;26.38;16.00;;;;;;;11.35;100.00;100930.56;5070162;28;20143;-72
2022/06/01 03:18:28;;;;;;;31.70;18.65;;;;;;;11.39;100.00;100933.31;5076680;28;20587;-73
2022/06/01 03:20:55;;;;;;;27.40;18.02;;;;;;;11.43;100.00;100929.38;5079030;28;20059;-73
2022/06/01 03:23:21;;;;;;;28.70;18.33;;;;;;;11.42;100.00;100930.56;5078226;28;20058;-74
2022/06/01 03:25:48;;;;;;;30.13;18.23;;;;;;;11.38;100.00;100926.22;5074405;28;20520;-73
2022/06/01 03:28:15;;;;;;;25.75;16.50;;;;;;;11.33;100.00;100930.16;5077889;28;20735;-75
2022/06/01 03:30:43;;;;;;;28.20;17.15;;;;;;;11.28;100.00;100932.56;5076586;28;20155;-74
2022/06/01 03:33:17;;;;;;;31.90;17.73;;;;;;;11.27;100.00;100931.75;5077310;28;20052;-74
2022/06/01 03:35:43;;;;;;;30.40;16.80;;;;;;;11.23;100.00;100930.16;5080761;28;20056;-73
2022/06/01 03:38:10;;;;;;;29.67;18.33;;;;;;;11.22;100.00;100921.09;5076537;28;20059;-74
2022/06/01 03:40:37;;;;;;;33.72;18.77;;;;;;;11.24;100.00;100923.47;5078630;28;20135;-75
2022/06/01 03:43:05;;;;;;;30.35;17.02;;;;;;;11.23;100.00;100921.84;5077785;28;20059;-74
2022/06/01 03:48:17;;;;;;;33.90;18.85;;;;;;;11.23;100.00;100919.88;5078337;28;20064;-73
2022/06/01 03:50:44;;;;;;;31.30;18.10;;;;;;;11.22;100.00;100923.84;5075247;28;20136;-74
2022/06/01 03:53:12;;;;;;;31.30;18.35;;;;;;;11.19;100.00;100932.16;5082569;28;20131;-74
2022/06/01 03:55:40;;;;;;;31.88;19.23;;;;;;;11.19;100.00;100935.72;5081537;28;20851;-73
2022/06/01 03:58:11;;;;;;;30.75;16.73;;;;;;;11.16;100.00;100930.16;5081453;28;20599;-73
2022/06/01 04:00:37;;;;;;;31.98;19.05;;;;;;;11.19;100.00;100940.47;5072514;28;20075;-74
2022/06/01 04:03:04;;;;;;;33.38;18.58;;;;;;;11.19;100.00;100940.47;5084516;28;20052;-74
2022/06/01 04:05:31;;;;;;;31.10;19.75;;;;;;;11.14;100.00;100944.41;5076840;28;20048;-73
2022/06/01 04:07:57;;;;;;;29.50;16.88;;;;;;;11.09;100.00;100941.25;5085569;28;20092;-77
2022/06/01 04:10:24;;;;;;;30.05;17.25;;;;;;;11.06;100.00;100939.25;5081789;28;20077;-73
2022/06/01 04:12:57;;;;;;;30.52;18.85;;;;;;;11.10;100.00;100948.38;5075884;28;20047;-74
2022/06/01 04:15:23;;;;;;;32.08;18.73;;;;;;;11.12;100.00;100957.06;5072557;28;20469;-74
2022/06/01 04:17:50;;;;;;;33.03;19.42;;;;;;;11.13;100.00;100959.44;5074652;28;20159;-74
2022/06/01 04:20:16;;;;;;;33.28;21.25;;;;;;;11.17;100.00;100959.47;5075310;28;20048;-74
2022/06/01 04:22:44;;;;;;;28.55;16.58;;;;;;;11.18;100.00;100953.53;5076420;28;20048;-74
2022/06/01 04:25:13;;;;;;;26.98;17.15;;;;;;;11.14;100.00;100952.72;5075936;28;20070;-73
2022/06/01 04:27:40;;;;;;;32.10;19.50;;;;;;;11.23;100.00;100952.31;5080816;28;20040;-74
2022/06/01 04:30:09;;;;;;;31.23;17.17;;;;;;;11.22;100.00;100954.31;5072394;28;20428;-74
2022/06/01 04:32:36;;;;;;;29.58;16.35;;;;;;;11.26;100.00;100957.88;5080453;28;20051;-75
2022/06/01 04:35:05;;;;;;;22.85;11.82;;;;;;;11.23;100.00;100958.66;5074412;28;20052;-74
2022/06/01 04:37:32;;;;;;;32.38;18.70;;;;;;;11.34;100.00;100958.66;5079055;28;20055;-73
2022/06/01 04:40:04;;;;;;;33.17;18.48;;;;;;;11.38;100.00;100957.50;5074380;28;20097;-74
2022/06/01 04:42:31;;;;;;;26.52;14.15;;;;;;;11.38;100.00;100965.81;5070988;28;20040;-74
2022/06/01 04:44:58;;;;;;;35.50;18.35;;;;;;;11.48;100.00;100966.97;5076211;28;20048;-74
2022/06/01 04:47:24;;;;;;;24.80;13.98;;;;;;;11.45;100.00;100963.03;5073793;28;20135;-73
2022/06/01 04:49:51;;;;;;;32.72;20.83;;;;;;;11.57;100.00;100964.56;5070741;28;20064;-74
2022/06/01 04:52:17;;;;;;;34.08;20.02;;;;;;;11.59;100.00;100959.44;5068907;28;20053;-74
2022/06/01 04:54:44;;;;;;;34.33;20.65;;;;;;;11.63;100.00;100963.00;5080151;28;20048;-73
2022/06/01 04:57:10;;;;;;;31.70;17.67;;;;;;;11.67;100.00;100961.81;5079198;28;20056;-74
2022/06/01 04:59:37;;;;;;;34.85;21.20;;;;;;;11.77;100.00;100960.22;5074640;28;20045;-74
2022/06/01 05:02:05;;;;;;;32.33;19.13;;;;;;;11.79;100.00;100964.19;5082409;28;20036;-73
2022/06/01 05:04:32;;;;;;;34.38;20.15;;;;;;;11.83;100.00;100959.41;5079485;28;20098;-73
2022/06/01 05:07:00;;;;;;;37.60;24.33;;;;;;;11.95;100.00;100960.97;5079571;28;20086;-74
2022/06/01 05:09:27;;;;;;;39.03;21.08;;;;;;;12.01;100.00;100962.13;5076944;28;20079;-74
2022/06/01 05:11:54;;;;;;;36.20;18.38;;;;;;;11.97;100.00;100969.69;5080205;28;20048;-76
2022/06/01 05:14:20;;;;;;;32.13;17.63;;;;;;;12.02;100.00;100956.19;5087003;28;20477;-74
2022/06/01 05:16:47;;;;;;;39.25;22.75;;;;;;;12.13;100.00;100965.28;5079570;28;20055;-74
2022/06/01 05:19:14;;;;;;;38.45;22.83;;;;;;;12.23;100.00;100967.22;5079180;28;20051;-76
2022/06/01 05:21:40;;;;;;;38.47;23.17;;;;;;;12.26;100.00;100965.63;5081997;28;20053;-75
2022/06/01 05:24:07;;;;;;;34.63;22.08;;;;;;;12.33;100.00;100965.59;5079538;28;20051;-76
2022/06/01 05:26:33;;;;;;;24.30;12.80;;;;;;;12.29;100.00;100965.59;5076550;28;20175;-74
2022/06/01 05:29:00;;;;;;;15.23;7.35;;;;;;;12.34;100.00;100967.97;5077536;28;20056;-76
2022/06/01 05:31:27;;;;;;;37.00;20.90;;;;;;;12.37;100.00;100961.63;5083377;28;20059;-74
2022/06/01 05:33:54;;;;;;;33.17;17.98;;;;;;;12.49;100.00;100969.47;5084479;28;20052;-72
2022/06/01 05:36:21;;;;;;;7.95;4.00;;;;;;;12.53;100.00;100963.91;5081494;28;20056;-71
2022/06/01 05:38:47;;;;;;;38.55;22.90;;;;;;;12.58;100.00;100957.94;5086615;28;20050;-75
2022/06/01 05:41:14;;;;;;;40.22;22.58;;;;;;;12.72;100.00;100963.41;5080525;28;20040;-73
2022/06/01 05:43:41;;;;;;;22.67;11.02;;;;;;;12.71;100.00;100973.72;5077905;28;20052;-72
2022/06/01 05:46:08;;;;;;;14.48;7.70;;;;;;;12.74;100.00;100969.34;5077778;28;20056;-73
2022/06/01 05:48:35;;;;;;;42.03;22.60;;;;;;;12.90;100.00;100975.19;5077927;28;20049;-74
2022/06/01 05:51:02;;;;;;;19.20;8.68;;;;;;;12.83;100.00;100962.13;5080942;28;20088;-76
2022/06/01 05:53:28;;;;;;;40.05;21.80;;;;;;;12.94;100.00;100973.19;5078534;28;20102;-75
2022/06/01 05:55:55;;;;;;;45.80;25.38;;;;;;;13.09;100.00;100965.59;5086373;28;20076;-73
2022/06/01 05:58:25;;;;;;;48.75;26.58;;;;;;;13.16;100.00;100971.84;5080171;28;20104;-72
2022/06/01 06:00:54;;;;;;;43.28;24.98;;;;;;;13.29;100.00;100972.94;5077843;28;20044;-72
2022/06/01 06:03:26;;;;;;;38.58;22.45;;;;;;;13.32;100.00;100971.34;5086055;28;20054;-73
2022/06/01 06:06:15;;;;;;;39.83;19.05;;;;;;;13.23;100.00;100965.47;5074780;28;20527;-74
2022/06/01 06:08:48;;;;;;;41.30;22.40;;;;;;;13.32;100.00;100971.34;5070308;28;20053;-71
2022/06/01 06:11:26;;;;;;;43.45;23.08;;;;;;;13.38;100.00;100964.94;5076188;28;20374;-72
2022/06/01 06:13:54;;;;;;;39.38;23.23;;;;;;;13.50;100.00;100967.19;5070463;28;20048;-73
2022/06/01 06:16:22;;;;;;;37.28;18.92;;;;;;;13.52;100.00;100970.38;5075140;28;20135;-72
2022/06/01 06:18:50;;;;;;;13.98;7.07;;;;;;;13.54;100.00;100978.31;5081399;28;20126;-71
2022/06/01 06:21:17;;;;;;;12.52;6.40;;;;;;;13.54;100.00;100984.66;5071025;28;20160;-73
2022/06/01 06:23:44;;;;;;;26.95;14.82;;;;;;;13.62;100.00;100985.38;5076882;28;20072;-74
2022/06/01 06:26:10;;;;;;;40.40;23.65;;;;;;;13.81;100.00;100995.91;5082032;28;20431;-74
2022/06/01 06:28:37;;;;;;;39.90;22.30;;;;;;;13.88;100.00;100991.09;5077831;28;20088;-70
2022/06/01 06:31:04;;;;;;;41.00;24.00;;;;;;;13.93;100.00;100985.06;5078590;28;20052;-73
2022/06/01 06:33:31;;;;;;;35.58;19.55;;;;;;;13.96;100.00;100994.56;5075042;28;20052;-72
2022/06/01 06:36:01;;;;;;;39.72;21.98;;;;;;;13.99;100.00;100993.75;5084331;28;20159;-70
2022/06/01 06:38:29;;;;;;;35.70;20.10;;;;;;;14.07;100.00;100993.25;5070690;28;20072;-71
2022/06/01 06:40:58;;;;;;;32.05;16.25;;;;;;;14.07;100.00;100995.25;5080786;28;20766;-73
2022/06/01 06:43:26;;;;;;;37.90;20.95;;;;;;;14.19;100.00;101006.66;5084196;28;20123;-72
2022/06/01 06:46:02;;;;;;;36.72;19.05;;;;;;;14.20;100.00;101011.00;5080627;28;20135;-73
2022/06/01 06:48:29;;;;;;;37.10;19.52;;;;;;;14.30;100.00;101004.56;5076460;28;20072;-72
2022/06/01 06:50:56;;;;;;;26.30;9.18;;;;;;;14.20;100.00;101011.00;5084803;28;20054;-72
2022/06/01 06:53:23;;;;;;;13.65;6.78;;;;;;;14.16;100.00;101004.69;5060212;28;20082;-71
2022/06/01 06:55:50;;;;;;;20.02;9.02;;;;;;;14.22;100.00;101011.41;5079822;28;20040;-71
2022/06/01 06:58:17;;;;;;;28.50;16.20;;;;;;;14.33;100.00;101012.06;5071637;28;20172;-75
2022/06/01 07:00:43;;;;;;;13.20;5.25;;;;;;;14.23;100.00;101015.75;5083960;28;20054;-72
2022/06/01 07:03:10;;;;;;;26.38;11.68;;;;;;;14.13;100.00;101013.06;5077305;28;20666;-71
2022/06/01 07:08:23;;;;;;;11.07;5.75;;;;;;;14.35;100.00;101015.22;5084012;28;20032;-71
2022/06/01 07:10:49;;;;;;;16.05;5.60;;;;;;;14.49;100.00;101012.28;5072788;28;20072;-73
2022/06/01 07:13:15;;;;;;;26.13;12.63;;;;;;;14.66;100.00;101011.28;5081849;28;20044;-72
2022/06/01 07:15:42;;;;;;;9.48;3.85;;;;;;;14.64;100.00;101024.81;5070269;28;20098;-72
2022/06/01 07:18:16;;;;;;;12.23;4.75;;;;;;;14.58;100.00;101023.69;5066887;28;20182;-71
2022/06/01 07:20:42;;;;;;;14.07;6.47;;;;;;;14.65;100.00;101020.03;5067124;28;20135;-71
2022/06/01 07:23:09;;;;;;;19.30;10.32;;;;;;;14.95;100.00;101015.22;5076224;28;20047;-72
2022/06/01 07:25:35;;;;;;;24.73;11.40;;;;;;;15.16;100.00;101023.28;5076243;28;20750;-73
2022/06/01 07:28:02;;;;;;;21.88;11.48;;;;;;;15.24;100.00;101023.97;5080155;28;20182;-71
2022/06/01 07:30:28;;;;;;;21.38;10.52;;;;;;;15.38;100.00;101021.78;5076218;28;20076;-73
2022/06/01 07:32:56;;;;;;;10.13;5.28;;;;;;;15.30;100.00;101025.84;5073289;28;20474;-71
2022/06/01 07:35:23;;;;;;;23.23;11.52;;;;;;;15.52;100.00;101033.94;5074179;28;20059;-73
2022/06/01 07:43:21;;;;;;;11.82;4.90;;;;;;;15.32;99.78;101023.44;5080927;28;20710;-72
2022/06/01 07:45:49;;;;;;;21.10;10.75;;;;;;;15.46;97.29;101028.81;5082888;28;20105;-75
2022/06/01 07:48:17;;;;;;;17.23;6.97;;;;;;;15.45;97.10;101027.25;5073042;28;20131;-72
2022/06/01 07:51:04;;;;;;;10.48;6.05;;;;;;;15.49;98.02;101025.19;5071029;28;20055;-72
2022/06/01 07:53:31;;;;;;;19.38;10.68;;;;;;;15.59;95.21;101026.22;5074120;28;20071;-71
2022/06/01 07:55:57;;;;;;;9.23;4.50;;;;;;;15.71;95.82;101024.81;5078519;28;20047;-72
2022/06/01 07:58:24;;;;;;;17.50;8.90;;;;;;;15.92;93.79;101027.22;5078586;28;20472;-72
2022/06/01 08:00:51;;;;;;;15.20;7.85;;;;;;;15.98;94.44;101026.34;5082616;28;20052;-72
2022/06/01 08:03:18;;;;;;;13.68;6.68;;;;;;;16.04;91.48;101021.84;5082090;28;20036;-71
2022/06/01 08:05:44;;;;;;;9.00;4.93;;;;;;;15.94;90.90;101027.59;5084846;28;20126;-71
2022/06/01 08:08:11;;;;;;;9.30;4.57;;;;;;;15.88;87.61;101030.09;5079137;28;20056;-71
2022/06/01 08:10:38;;;;;;;10.98;5.50;;;;;;;15.86;90.66;101023.38;5083907;28;20105;-72
2022/06/01 08:13:09;;;;;;;9.57;4.90;;;;;;;15.89;89.98;101025.31;5078305;28;20342;-72
2022/06/01 08:15:48;;;;;;;15.23;6.97;;;;;;;15.94;89.26;101027.59;5082516;28;20075;-71
2022/06/01 08:18:21;;;;;;;18.67;8.88;;;;;;;16.10;89.68;101034.06;5076397;28;20044;-72
2022/06/01 08:20:49;;;;;;;16.23;6.75;;;;;;;16.04;87.56;101033.00;5075024;28;20110;-72
2022/06/01 08:23:20;;;;;;;13.25;6.88;;;;;;;16.07;86.53;101029.38;5077026;28;20044;-71
2022/06/01 08:25:46;;;;;;;12.73;6.70;;;;;;;16.31;86.81;101032.88;5080430;28;20040;-70
2022/06/01 08:28:13;;;;;;;13.85;6.18;;;;;;;16.42;84.40;101025.09;5078557;28;20055;-73
2022/06/01 08:30:40;;;;;;;8.48;3.75;;;;;;;16.51;83.19;101044.88;5077458;28;20052;-72
2022/06/01 08:33:08;;;;;;;3.72;1.90;;;;;;;16.57;81.80;101032.00;5073416;28;20048;-74
2022/06/01 08:35:39;;;;;;;6.47;2.90;;;;;;;16.31;80.00;101035.69;5075121;28;20131;-73
2022/06/01 08:38:06;;;;;;;5.05;3.22;;;;;;;16.62;81.74;101043.47;5074926;28;20466;-72
2022/06/01 08:40:47;;;;;;;8.93;4.20;;;;;;;16.78;79.86;101040.69;5074604;28;20419;-71
2022/06/01 08:43:17;;;;;;;5.22;2.95;;;;;;;16.80;73.96;101040.28;5073467;28;20058;-71
2022/06/01 08:45:49;;;;;;;7.05;3.63;;;;;;;17.02;71.12;101047.00;5076864;28;20076;-72
2022/06/01 08:48:19;;;;;;;3.75;1.02;;;;;;;17.18;71.33;101050.59;5079404;28;20048;-73
2022/06/01 08:50:47;;;;;;;6.22;3.58;;;;;;;17.06;68.17;101042.09;5075725;28;20044;-73
2022/06/01 08:53:14;;;;;;;3.35;1.73;;;;;;;16.84;68.72;101046.59;5079036;28;20139;-71
2022/06/01 08:55:51;;;;;;;7.13;3.03;;;;;;;16.79;67.71;101047.88;5080521;28;20135;-72
2022/06/01 08:58:27;;;;;;;4.40;2.20;;;;;;;17.02;67.39;101035.81;5080922;28;20831;-73
2022/06/01 09:01:01;;;;;;;8.20;3.53;;;;;;;17.34;67.34;101041.44;5072391;28;20056;-73
2022/06/01 09:03:30;;;;;;;2.55;1.65;;;;;;;17.38;65.70;101048.53;5080822;28;20055;-73
2022/06/01 09:06:28;;;;;;;5.65;2.67;;;;;;;17.40;65.46;101043.31;5078749;28;20048;-72
2022/06/01 09:09:06;;;;;;;6.82;2.08;;;;;;;17.25;60.41;101039.25;5077500;28;20075;-72
2022/06/01 09:11:37;;;;;;;8.13;2.47;;;;;;;17.49;64.21;101037.91;5085428;28;20543;-71
2022/06/01 09:14:07;;;;;;;5.40;2.58;;;;;;;17.81;61.39;101042.72;5069131;28;20075;-71
2022/06/01 09:16:38;;;;;;;3.85;1.85;;;;;;;17.82;60.72;101041.50;5073213;28;20123;-71
2022/06/01 09:19:11;;;;;;;6.18;3.53;;;;;;;18.12;62.11;101054.31;5070291;28;20166;-73
2022/06/01 09:24:33;;;;;;;7.90;3.13;;;;;;;17.93;59.35;101047.59;5072077;28;20080;-71
2022/06/01 09:27:06;;;;;;;5.65;3.00;;;;;;;18.02;60.12;101056.16;5076529;28;20044;-71
2022/06/01 09:29:42;;;;;;;2.95;1.58;;;;;;;17.65;58.62;101062.31;5073768;28;20144;-71
2022/06/01 09:32:30;;;;;;;4.88;2.58;;;;;;;18.08;57.81;101056.44;5079331;28;20131;-72
2022/06/01 09:35:05;;;;;;;8.43;3.40;;;;;;;18.23;57.11;101052.81;5078927;28;20120;-71
2022/06/01 09:37:36;;;;;;;4.25;1.95;;;;;;;18.10;56.94;101046.34;5077458;28;20135;-72
2022/06/01 09:40:19;;;;;;;3.83;1.60;;;;;;;18.23;57.50;101049.22;5069540;28;20620;-72
2022/06/01 09:42:50;;;;;;;5.65;2.70;;;;;;;18.12;55.48;101048.72;5069591;28;20044;-72
2022/06/01 09:45:26;;;;;;;4.70;2.42;;;;;;;18.24;57.73;101048.78;5078498;28;20786;-72
2022/06/01 09:48:05;;;;;;;7.85;3.08;;;;;;;18.17;57.77;101046.16;5086800;28;20131;-72
2022/06/01 09:50:35;;;;;;;6.00;2.72;;;;;;;18.05;57.04;101049.69;5085017;28;20039;-71
2022/06/01 09:53:10;;;;;;;4.97;2.05;;;;;;;17.80;55.20;101046.75;5077012;28;20068;-72
2022/06/01 09:55:49;;;;;;;;;;;;;;;17.87;55.27;101035.38;5078635;28;20717;-70
2022/06/01 10:06:05;;;;;;;4.78;2.15;;;;;;;17.41;55.72;101046.88;5068641;28;20019;-71
2022/06/01 10:06:57;;;;;;;13.25;1.63;;;;;;;17.52;58.01;101047.44;5079819;28;20059;-74
2022/06/01 10:09:29;;;;;;;7.53;3.00;;;;;;;17.56;56.93;101045.34;5081202;28;20069;-72
2022/06/01 10:12:42;;;;;;;5.05;2.78;;;;;;;17.37;59.80;101048.97;5075549;28;20075;-71
2022/06/01 10:15:21;;;;;;;;;;;;;;;17.24;59.22;101042.47;4975920;28;20062;-71
2022/06/01 10:17:53;;;;;;;4.70;2.35;;;;;;;17.18;59.60;101039.41;5072927;28;19959;-72
2022/06/01 10:20:30;;;;;;;3.30;1.48;;;;;;;17.49;60.13;101037.91;5077955;28;20115;-74
2022/06/01 10:23:05;;;;;;;5.63;2.38;;;;;;;17.67;61.06;101037.47;5072850;28;20155;-71
2022/06/01 10:25:41;;;;;;;;;;;;;;;17.89;61.52;101044.88;5074357;28;20058;-71
2022/06/01 10:28:18;;;;;;;12.38;4.90;;;;;;;17.85;61.28;101043.41;5075906;28;20017;-72
2022/06/01 10:31:16;;;;;;;7.20;3.95;;;;;;;17.98;60.64;101044.25;5076796;28;20401;-72
2022/06/01 10:33:49;;;;;;;4.38;1.10;;;;;;;18.03;59.61;101046.53;5072510;28;20085;-73
2022/06/01 10:36:23;;;;;;;5.50;2.38;;;;;;;18.02;59.95;101039.34;5075685;28;20424;-71
2022/06/01 10:39:01;;;;;;;6.43;3.05;;;;;;;18.17;58.97;101040.56;5074967;28;20054;-71
2022/06/01 10:42:03;;;;;;;6.97;2.63;;;;;;;17.94;59.34;101037.97;5068866;28;20056;-74
2022/06/01 10:45:04;;;;;;;4.80;2.13;;;;;;;17.88;60.54;101048.91;5076447;28;20075;-71
2022/06/01 10:47:48;;;;;;;11.38;3.63;;;;;;;17.93;60.98;101042.78;5079736;28;20147;-72
2022/06/01 10:50:22;;;;;;;7.68;4.40;;;;;;;18.05;61.80;101049.69;5073973;28;20132;-71
2022/06/01 10:52:54;;;;;;;6.57;3.73;;;;;;;17.81;60.77;101070.69;5075922;28;20051;-72
2022/06/01 10:55:28;;;;;;;11.48;3.97;;;;;;;17.63;61.83;101059.16;5071593;28;20313;-73
2022/06/01 10:57:57;;;;;;;11.23;4.30;;;;;;;17.61;60.40;101056.81;5073429;28;20142;-71
2022/06/01 11:00:36;;;;;;;9.05;3.25;;;;;;;17.87;59.20;101057.75;5079420;28;20052;-74
2022/06/01 11:03:27;;;;;;;6.30;3.03;;;;;;;17.91;56.46;101062.03;5076112;28;20106;-72
2022/06/01 11:06:29;;;;;;;1.65;1.10;;;;;;;18.36;56.69;101067.66;5070540;28;20171;-74
2022/06/01 11:08:59;;;;;;;9.57;3.97;;;;;;;18.53;55.96;101049.56;5075624;28;20126;-73
2022/06/01 11:11:47;;;;;;;3.88;2.03;;;;;;;18.61;55.37;101050.97;5076263;28;20048;-73
2022/06/01 11:14:35;;;;;;;10.45;4.13;;;;;;;19.40;54.61;101048.97;5080653;28;20120;-72
2022/06/01 11:17:31;;;;;;;6.35;2.65;;;;;;;19.14;51.34;101061.34;5075877;28;20159;-70
2022/06/01 11:20:04;;;;;;;8.52;4.55;;;;;;;19.49;51.61;101049.06;5099325;28;20097;-74
2022/06/01 11:23:09;;;;;;;10.02;4.50;;;;;;;20.02;51.80;101045.25;5071388;28;20135;-72
2022/06/01 11:25:38;;;;;;;3.50;1.92;;;;;;;20.02;48.42;101038.88;5026770;28;20048;-76
2022/06/01 11:28:28;;;;;;;7.20;3.15;;;;;;;20.28;48.83;101041.16;5085437;28;20052;-75
2022/06/01 11:31:13;;;;;;;3.67;2.33;;;;;;;20.16;47.20;101047.63;5074462;28;20776;-73
2022/06/01 11:33:44;;;;;;;8.23;3.28;;;;;;;20.38;46.86;101048.41;5082625;28;20055;-74
2022/06/01 11:36:41;;;;;;;6.88;2.03;;;;;;;20.45;45.52;101046.59;5071496;28;20060;-73
2022/06/01 11:39:25;;;;;;;5.38;3.08;;;;;;;19.69;46.13;101041.19;5072967;28;20047;-74
2022/06/01 11:42:03;;;;;;;4.32;2.88;;;;;;;20.19;46.94;101040.31;5076963;28;20139;-73
2022/06/01 11:44:38;;;;;;;4.85;2.67;;;;;;;20.38;45.86;101048.41;5075420;28;20044;-72
2022/06/01 11:47:09;;;;;;;3.88;2.40;;;;;;;20.64;45.98;101042.66;5075815;28;20048;-73
2022/06/01 11:49:37;;;;;;;5.85;2.10;;;;;;;20.90;45.23;101038.47;5072406;28;20140;-72
2022/06/01 11:52:22;;;;;;;10.60;3.17;;;;;;;21.39;45.73;101039.38;5075731;28;20104;-73